createdAt,value
2023-02-09T00:01:30.682Z,36.70
2023-02-09T00:03:59.767Z,37.60
2023-02-09T00:06:30.017Z,37.50
2023-02-09T00:08:58.925Z,36.60
2023-02-09T00:11:47.959Z,36.80
2023-02-09T00:14:19.208Z,37.00
2023-02-09T00:16:50.440Z,35.10
2023-02-09T00:19:20.267Z,35.60
2023-02-09T00:21:48.289Z,36.60
2023-02-09T00:24:16.631Z,35.90
2023-02-09T00:26:44.946Z,36.00
2023-02-09T00:29:12.900Z,37.70
2023-02-09T00:31:40.744Z,36.70
2023-02-09T00:34:08.496Z,37.60
2023-02-09T00:36:36.182Z,38.00
2023-02-09T00:39:03.994Z,38.00
2023-02-09T00:41:51.156Z,37.10
2023-02-09T00:44:18.978Z,42.40
2023-02-09T00:46:49.048Z,39.60
2023-02-09T00:49:16.737Z,39.90
2023-02-09T00:51:44.494Z,40.60
2023-02-09T00:54:13.577Z,40.20
2023-02-09T00:56:41.235Z,39.70
2023-02-09T00:59:09.200Z,39.60
2023-02-09T01:01:37.029Z,39.20
2023-02-09T01:04:05.313Z,40.20
2023-02-09T01:06:33.614Z,41.10
2023-02-09T01:09:01.981Z,41.40
2023-02-09T01:11:30.401Z,42.80
2023-02-09T01:14:00.126Z,41.20
2023-02-09T01:16:29.005Z,41.80
2023-02-09T01:19:00.558Z,41.20
2023-02-09T01:21:30.589Z,42.00
2023-02-09T01:23:58.823Z,41.60
2023-02-09T01:26:26.501Z,41.80
2023-02-09T01:28:54.538Z,41.90
2023-02-09T01:31:25.673Z,41.40
2023-02-09T01:33:55.430Z,40.80
2023-02-09T01:36:23.375Z,42.20
2023-02-09T01:38:51.481Z,39.50
2023-02-09T01:41:19.228Z,42.30
2023-02-09T01:43:53.272Z,41.00
2023-02-09T01:46:22.788Z,41.10
2023-02-09T01:48:55.007Z,40.30
2023-02-09T01:51:23.295Z,40.70
2023-02-09T01:53:51.299Z,39.60
2023-02-09T01:56:24.358Z,41.50
2023-02-09T01:58:52.106Z,42.00
2023-02-09T02:01:20.885Z,41.30
2023-02-09T02:03:48.737Z,40.90
2023-02-09T02:06:17.295Z,43.20
2023-02-09T02:08:53.406Z,42.30
2023-02-09T02:11:23.604Z,41.60
2023-02-09T02:13:51.248Z,40.40
2023-02-09T02:16:20.551Z,40.80
2023-02-09T02:19:22.736Z,39.40
2023-02-09T02:22:15.599Z,41.00
2023-02-09T02:25:04.467Z,41.10
2023-02-09T02:27:59.892Z,42.10
2023-02-09T02:30:35.320Z,42.40
2023-02-09T02:33:11.076Z,42.90
2023-02-09T02:35:47.424Z,44.20
2023-02-09T02:38:24.069Z,45.30
2023-02-09T02:41:11.077Z,43.00
2023-02-09T02:44:08.547Z,44.20
2023-02-09T02:46:49.247Z,44.00
2023-02-09T02:49:35.292Z,46.70
2023-02-09T02:52:07.819Z,46.90
2023-02-09T02:54:40.020Z,44.60
2023-02-09T02:57:12.519Z,47.10
2023-02-09T02:59:53.929Z,45.80
2023-02-09T03:02:23.834Z,46.60
2023-02-09T03:04:55.022Z,47.60
2023-02-09T03:07:22.665Z,47.20
2023-02-09T03:09:52.159Z,47.30
2023-02-09T03:12:29.095Z,47.30
2023-02-09T03:15:14.925Z,49.20
2023-02-09T03:17:47.824Z,47.70
2023-02-09T03:20:37.376Z,48.60
2023-02-09T03:23:07.685Z,46.10
2023-02-09T03:25:38.523Z,48.00
2023-02-09T03:28:08.847Z,47.80
2023-02-09T03:30:37.064Z,49.40
2023-02-09T03:33:05.331Z,51.40
2023-02-09T03:35:41.205Z,52.40
2023-02-09T03:38:08.921Z,49.30
2023-02-09T03:40:36.637Z,50.50
2023-02-09T03:43:04.324Z,51.20
2023-02-09T03:45:32.160Z,50.20
2023-02-09T03:48:00.125Z,51.00
2023-02-09T03:50:29.853Z,51.00
2023-02-09T03:52:58.413Z,53.40
2023-02-09T03:55:26.198Z,51.40
2023-02-09T03:57:53.967Z,51.10
2023-02-09T04:00:21.684Z,52.40
2023-02-09T04:02:49.406Z,51.10
2023-02-09T04:05:17.360Z,50.70
2023-02-09T04:07:45.137Z,50.20
2023-02-09T04:10:12.853Z,48.20
2023-02-09T04:12:40.526Z,50.10
2023-02-09T04:15:09.395Z,47.70
2023-02-09T04:17:37.131Z,49.90
2023-02-09T04:20:05.477Z,50.50
2023-02-09T04:22:33.500Z,48.30
2023-02-09T04:25:01.202Z,48.70
2023-02-09T04:27:28.832Z,50.20
2023-02-09T04:29:56.512Z,51.20
2023-02-09T04:32:24.177Z,50.20
2023-02-09T04:34:51.855Z,49.30
2023-02-09T04:37:19.567Z,49.30
2023-02-09T04:39:47.259Z,51.10
2023-02-09T04:42:14.906Z,50.00
2023-02-09T04:44:42.625Z,50.70
2023-02-09T04:47:10.514Z,49.90
2023-02-09T04:49:38.259Z,57.00
2023-02-09T04:52:05.955Z,59.30
2023-02-09T04:54:33.708Z,60.20
2023-02-09T04:57:20.539Z,63.70
2023-02-09T04:59:48.212Z,61.50
2023-02-09T05:02:15.903Z,62.70
2023-02-09T05:04:43.866Z,59.80
2023-02-09T05:07:11.661Z,61.60
2023-02-09T05:09:39.378Z,59.40
2023-02-09T05:12:10.062Z,57.40
2023-02-09T05:14:37.782Z,59.10
2023-02-09T05:17:05.470Z,56.60
2023-02-09T05:19:33.356Z,62.20
2023-02-09T05:22:01.010Z,50.90
2023-02-09T05:24:28.764Z,58.80
2023-02-09T05:26:56.482Z,54.10
2023-02-09T05:29:24.209Z,51.60
2023-02-09T05:31:51.875Z,58.40
2023-02-09T05:34:19.636Z,56.20
2023-02-09T05:36:47.742Z,55.80
2023-02-09T05:39:15.417Z,54.30
2023-02-09T05:42:01.940Z,53.30
2023-02-09T05:44:29.624Z,51.50
2023-02-09T05:46:57.364Z,53.20
2023-02-09T05:49:25.109Z,52.00
2023-02-09T05:51:53.036Z,51.20
2023-02-09T05:54:20.764Z,51.40
2023-02-09T05:56:48.455Z,50.90
2023-02-09T05:59:16.235Z,51.10
2023-02-09T06:01:43.970Z,51.50
2023-02-09T06:04:11.795Z,50.80
2023-02-09T06:06:39.482Z,49.60
2023-02-09T06:09:07.177Z,50.80
2023-02-09T06:11:37.045Z,52.00
2023-02-09T06:14:04.980Z,47.00
2023-02-09T06:16:32.697Z,53.80
2023-02-09T06:19:00.448Z,49.00
2023-02-09T06:21:28.365Z,48.60
2023-02-09T06:23:56.196Z,46.20
2023-02-09T06:26:24.109Z,47.00
2023-02-09T06:28:51.737Z,45.80
2023-02-09T06:31:19.455Z,44.30
2023-02-09T06:33:47.198Z,45.40
2023-02-09T06:36:14.856Z,43.70
2023-02-09T06:38:42.559Z,44.10
2023-02-09T06:41:10.199Z,44.70
2023-02-09T06:43:38.133Z,46.70
2023-02-09T06:46:11.273Z,45.40
2023-02-09T06:48:39.573Z,44.60
2023-02-09T06:51:12.805Z,42.60
2023-02-09T06:53:42.711Z,42.90
2023-02-09T06:56:11.940Z,41.80
2023-02-09T06:58:40.721Z,39.30
2023-02-09T07:01:11.556Z,39.20
2023-02-09T07:03:39.286Z,39.60
2023-02-09T07:06:18.541Z,37.20
2023-02-09T07:08:46.541Z,37.40
2023-02-09T07:11:16.256Z,37.60
2023-02-09T07:13:44.447Z,34.90
2023-02-09T07:16:13.005Z,38.70
2023-02-09T07:18:41.308Z,36.80
2023-02-09T07:21:12.426Z,35.50
2023-02-09T07:23:40.286Z,36.80
2023-02-09T07:26:13.158Z,53.90
2023-02-09T07:28:41.468Z,36.50
2023-02-09T07:31:12.345Z,36.20
2023-02-09T07:33:40.423Z,38.00
2023-02-09T07:36:10.469Z,39.60
2023-02-09T07:38:38.703Z,39.70
2023-02-09T07:41:13.760Z,38.80
2023-02-09T07:43:42.111Z,39.10
2023-02-09T07:46:10.505Z,39.30
2023-02-09T07:48:38.258Z,41.00
2023-02-09T07:51:06.650Z,40.30
2023-02-09T07:53:34.367Z,42.60
2023-02-09T07:56:02.057Z,43.70
2023-02-09T07:58:29.731Z,44.00
2023-02-09T08:01:04.181Z,43.60
2023-02-09T08:03:32.371Z,41.50
2023-02-09T08:06:12.770Z,41.30
2023-02-09T08:08:40.365Z,42.00
2023-02-09T08:11:08.073Z,40.30
2023-02-09T08:13:37.933Z,40.50
2023-02-09T08:16:08.074Z,40.80
2023-02-09T08:18:45.283Z,39.70
2023-02-09T08:21:14.504Z,38.90
2023-02-09T08:23:43.992Z,40.40
2023-02-09T08:26:12.864Z,40.00
2023-02-09T08:28:45.572Z,38.90
2023-02-09T08:31:18.409Z,38.30
2023-02-09T08:33:47.960Z,38.60
2023-02-09T08:36:16.791Z,39.60
2023-02-09T08:38:45.419Z,39.30
2023-02-09T08:41:14.725Z,38.70
2023-02-09T08:43:42.542Z,37.40
2023-02-09T08:46:12.845Z,39.20
2023-02-09T08:48:44.161Z,39.30
2023-02-09T08:51:13.838Z,38.80
2023-02-09T08:53:43.265Z,40.80
2023-02-09T08:56:10.984Z,38.20
2023-02-09T08:58:38.767Z,39.60
2023-02-09T09:01:06.531Z,38.80
2023-02-09T09:03:34.293Z,39.20
2023-02-09T09:06:04.509Z,37.50
2023-02-09T09:08:34.445Z,39.80
2023-02-09T09:11:02.447Z,38.20
2023-02-09T09:13:30.117Z,36.70
2023-02-09T09:15:58.041Z,36.40
2023-02-09T09:18:26.199Z,37.10
2023-02-09T09:20:56.196Z,37.60
2023-02-09T09:23:24.441Z,36.00
2023-02-09T09:25:52.135Z,37.90
2023-02-09T09:28:20.004Z,37.80
2023-02-09T09:30:47.928Z,38.10
2023-02-09T09:33:15.642Z,37.80
2023-02-09T09:35:43.665Z,36.30
2023-02-09T09:38:11.666Z,37.00
2023-02-09T09:40:41.506Z,38.50
2023-02-09T09:43:20.292Z,38.10
2023-02-09T09:45:48.471Z,39.50
2023-02-09T09:48:25.514Z,38.90
2023-02-09T09:50:56.802Z,38.00
2023-02-09T09:53:33.136Z,38.10
2023-02-09T09:56:05.730Z,37.20
2023-02-09T09:58:34.326Z,37.40
2023-02-09T10:01:02.099Z,36.10
2023-02-09T10:03:29.796Z,34.50
2023-02-09T10:06:01.617Z,35.30
2023-02-09T10:08:32.943Z,34.50
2023-02-09T10:11:03.594Z,34.80
2023-02-09T10:13:44.509Z,31.60
2023-02-09T10:16:25.496Z,29.20
2023-02-09T10:18:55.548Z,24.60
2023-02-09T10:21:26.174Z,23.40
2023-02-09T10:23:59.928Z,24.70
2023-02-09T10:26:33.116Z,24.10
2023-02-09T10:29:11.295Z,23.70
2023-02-09T10:31:42.770Z,22.50
2023-02-09T10:34:15.040Z,22.40
2023-02-09T10:36:45.662Z,22.60
2023-02-09T10:39:17.978Z,21.80
2023-02-09T10:41:48.599Z,23.60
2023-02-09T10:44:22.890Z,23.30
2023-02-09T10:46:50.754Z,22.60
2023-02-09T10:49:35.329Z,23.40
2023-02-09T10:52:07.116Z,22.20
2023-02-09T10:54:35.373Z,24.30
2023-02-09T10:57:25.233Z,23.40
2023-02-09T11:00:00.168Z,23.20
2023-02-09T11:02:56.600Z,22.00
2023-02-09T11:05:30.731Z,22.90
2023-02-09T11:08:44.506Z,22.70
2023-02-09T11:11:28.768Z,21.80
2023-02-09T11:13:56.517Z,22.40
2023-02-09T11:16:38.036Z,21.90
2023-02-09T11:19:13.569Z,22.50
2023-02-09T11:22:00.294Z,21.40
2023-02-09T11:24:30.704Z,22.60
2023-02-09T11:27:06.824Z,21.40
2023-02-09T11:29:42.452Z,20.40
2023-02-09T11:32:20.061Z,19.70
2023-02-09T11:35:09.053Z,22.00
2023-02-09T11:37:47.711Z,21.60
2023-02-09T11:40:15.385Z,21.20
2023-02-09T11:42:50.518Z,22.00
2023-02-09T11:45:42.989Z,22.50
2023-02-09T11:48:20.082Z,21.80
2023-02-09T11:50:59.701Z,20.50
2023-02-09T11:53:35.850Z,22.10
2023-02-09T11:56:09.877Z,21.70
2023-02-09T11:58:46.532Z,20.80
2023-02-09T12:01:40.620Z,21.20
2023-02-09T12:04:29.112Z,21.40
2023-02-09T12:07:12.778Z,21.40
2023-02-09T12:09:55.174Z,21.50
2023-02-09T12:12:29.575Z,21.80
2023-02-09T12:15:24.560Z,21.70
2023-02-09T12:18:03.086Z,20.50
2023-02-09T12:20:36.775Z,21.80
2023-02-09T12:23:10.672Z,22.90
2023-02-09T12:26:00.409Z,22.80
2023-02-09T12:28:28.298Z,22.30
2023-02-09T12:31:00.209Z,20.60
2023-02-09T12:33:39.457Z,22.20
2023-02-09T12:36:10.016Z,22.60
2023-02-09T12:39:23.691Z,19.60
2023-02-09T12:41:52.008Z,20.70
2023-02-09T12:44:19.866Z,20.90
2023-02-09T12:46:55.030Z,21.30
2023-02-09T12:49:28.772Z,20.80
2023-02-09T12:52:02.950Z,20.50
2023-02-09T12:54:46.001Z,20.30
2023-02-09T12:57:17.065Z,20.20
2023-02-09T12:59:51.386Z,20.00
2023-02-09T13:02:50.472Z,18.10
2023-02-09T13:05:28.277Z,17.60
2023-02-09T13:08:11.283Z,16.70
2023-02-09T13:10:47.858Z,16.90
2023-02-09T13:13:33.845Z,15.90
2023-02-09T13:16:03.135Z,14.90
2023-02-09T13:18:58.721Z,15.70
2023-02-09T13:21:33.772Z,14.70
2023-02-09T13:24:13.312Z,12.40
2023-02-09T13:26:52.605Z,15.70
2023-02-09T13:29:29.114Z,14.70
2023-02-09T13:32:09.399Z,15.20
2023-02-09T13:34:52.760Z,15.60
2023-02-09T13:37:29.454Z,14.80
2023-02-09T13:40:01.988Z,14.30
2023-02-09T13:42:34.501Z,14.80
2023-02-09T13:45:02.291Z,15.30
2023-02-09T13:47:30.201Z,14.30
2023-02-09T13:50:35.543Z,14.70
2023-02-09T13:53:10.575Z,14.50
2023-02-09T13:55:45.232Z,14.80
2023-02-09T13:58:20.868Z,14.80
2023-02-09T14:00:51.789Z,14.50
2023-02-09T14:03:28.002Z,14.40
2023-02-09T14:06:19.144Z,14.20
2023-02-09T14:08:48.581Z,14.50
2023-02-09T14:11:41.593Z,13.80
2023-02-09T14:14:20.027Z,14.50
2023-02-09T14:16:53.794Z,13.90
2023-02-09T14:19:25.264Z,14.40
2023-02-09T14:21:53.393Z,14.40
2023-02-09T14:24:23.059Z,14.40
2023-02-09T14:27:03.806Z,14.10
2023-02-09T14:29:34.236Z,14.40
2023-02-09T14:32:31.897Z,14.20
2023-02-09T14:35:30.721Z,14.30
2023-02-09T14:38:00.510Z,14.90
2023-02-09T14:40:28.258Z,14.80
2023-02-09T14:43:11.510Z,14.50
2023-02-09T14:45:39.360Z,14.60
2023-02-09T14:48:27.088Z,15.50
2023-02-09T14:50:57.720Z,15.30
2023-02-09T14:53:28.360Z,14.30
2023-02-09T14:55:57.092Z,16.30
2023-02-09T14:58:30.338Z,14.70
2023-02-09T15:01:00.322Z,15.00
2023-02-09T15:03:28.875Z,15.20
2023-02-09T15:06:01.360Z,14.30
2023-02-09T15:08:31.335Z,14.00
2023-02-09T15:11:01.251Z,14.80
2023-02-09T15:13:30.363Z,14.20
2023-02-09T15:15:58.203Z,14.30
2023-02-09T15:18:27.130Z,15.50
2023-02-09T15:20:54.792Z,15.50
2023-02-09T15:23:22.569Z,15.30
2023-02-09T15:25:50.388Z,15.30
2023-02-09T15:28:32.087Z,16.00
2023-02-09T15:30:59.971Z,15.80
2023-02-09T15:33:28.984Z,16.30
2023-02-09T15:35:58.967Z,15.40
2023-02-09T15:38:28.021Z,15.20
2023-02-09T15:41:14.859Z,16.40
2023-02-09T15:44:01.380Z,16.30
2023-02-09T15:46:48.133Z,16.30
2023-02-09T15:49:15.943Z,16.70
2023-02-09T15:51:43.893Z,15.90
2023-02-09T15:54:19.422Z,16.30
2023-02-09T15:56:47.677Z,17.60
2023-02-09T15:59:21.319Z,17.30
2023-02-09T16:01:49.810Z,17.40
2023-02-09T16:04:18.006Z,17.50
2023-02-09T16:06:49.962Z,16.60
2023-02-09T16:09:21.328Z,17.10
2023-02-09T16:11:49.361Z,16.80
2023-02-09T16:14:24.146Z,17.50
2023-02-09T16:16:52.024Z,18.10
2023-02-09T16:19:21.376Z,17.40
2023-02-09T16:21:53.101Z,16.70
2023-02-09T16:24:46.876Z,16.60
2023-02-09T16:27:27.845Z,15.90
2023-02-09T16:29:57.055Z,16.80
2023-02-09T16:32:25.915Z,17.30
2023-02-09T16:34:54.968Z,16.30
2023-02-09T16:37:30.039Z,16.00
2023-02-09T16:40:01.063Z,17.30
2023-02-09T16:42:29.711Z,16.30
2023-02-09T16:44:57.897Z,16.90
2023-02-09T16:47:27.032Z,15.90
2023-02-09T16:50:17.769Z,15.70
2023-02-09T16:52:46.255Z,16.70
2023-02-09T16:55:43.489Z,16.80
2023-02-09T16:58:15.266Z,16.30
2023-02-09T17:00:44.800Z,17.30
2023-02-09T17:03:16.434Z,17.50
2023-02-09T17:05:49.585Z,16.10
2023-02-09T17:08:23.071Z,17.30
2023-02-09T17:10:54.029Z,17.50
2023-02-09T17:13:22.296Z,17.70
2023-02-09T17:15:59.424Z,17.60
2023-02-09T17:18:37.545Z,17.70
2023-02-09T17:21:14.089Z,16.80
2023-02-09T17:23:43.495Z,16.40
2023-02-09T17:26:12.784Z,16.70
2023-02-09T17:28:41.359Z,17.90
2023-02-09T17:31:18.157Z,17.30
2023-02-09T17:33:48.579Z,16.40
2023-02-09T17:36:26.901Z,18.20
2023-02-09T17:38:57.542Z,16.90
2023-02-09T17:41:33.292Z,17.40
2023-02-09T17:44:22.395Z,17.30
2023-02-09T17:46:56.700Z,16.70
2023-02-09T17:49:24.383Z,17.10
2023-02-09T17:51:53.100Z,18.40
2023-02-09T17:54:20.981Z,20.20
2023-02-09T17:56:48.674Z,18.90
2023-02-09T17:59:19.856Z,18.90
2023-02-09T18:01:51.537Z,18.60
2023-02-09T18:04:21.863Z,19.20
2023-02-09T18:06:49.508Z,20.00
2023-02-09T18:09:17.264Z,18.60
2023-02-09T18:11:44.895Z,19.20
2023-02-09T18:14:13.937Z,18.80
2023-02-09T18:16:42.758Z,18.70
2023-02-09T18:19:11.555Z,19.90
2023-02-09T18:21:47.143Z,19.10
2023-02-09T18:24:15.340Z,19.10
2023-02-09T18:26:43.103Z,19.50
2023-02-09T18:29:10.785Z,17.90
2023-02-09T18:31:38.418Z,19.30
2023-02-09T18:34:06.201Z,19.10
2023-02-09T18:36:34.091Z,20.20
2023-02-09T18:39:01.765Z,22.10
2023-02-09T18:41:29.441Z,19.80
2023-02-09T18:43:57.115Z,20.00
2023-02-09T18:46:25.396Z,19.50
2023-02-09T18:48:54.377Z,20.70
2023-02-09T18:51:22.254Z,20.30
2023-02-09T18:53:51.198Z,19.80
2023-02-09T18:56:22.589Z,20.10
2023-02-09T18:58:51.773Z,20.00
2023-02-09T19:01:21.393Z,20.00
2023-02-09T19:03:53.323Z,21.80
2023-02-09T19:06:22.024Z,19.60
2023-02-09T19:08:50.445Z,18.50
2023-02-09T19:11:20.281Z,19.20
2023-02-09T19:14:08.859Z,18.80
2023-02-09T19:16:37.613Z,19.40
2023-02-09T19:19:05.413Z,18.30
2023-02-09T19:21:33.652Z,19.40
2023-02-09T19:24:02.560Z,18.20
2023-02-09T19:26:30.307Z,20.70
2023-02-09T19:28:57.952Z,20.10
2023-02-09T19:31:25.799Z,21.50
2023-02-09T19:33:57.637Z,20.40
2023-02-09T19:36:27.884Z,20.20
2023-02-09T19:38:56.613Z,20.80
2023-02-09T19:41:25.728Z,20.20
2023-02-09T19:43:57.646Z,20.80
2023-02-09T19:46:25.743Z,22.40
2023-02-09T19:48:53.796Z,21.30
2023-02-09T19:51:21.996Z,21.00
2023-02-09T19:53:50.277Z,20.70
2023-02-09T19:56:23.428Z,19.60
2023-02-09T19:58:51.457Z,23.60
2023-02-09T20:01:20.406Z,24.00
2023-02-09T20:03:49.545Z,22.70
2023-02-09T20:06:17.292Z,22.90
2023-02-09T20:08:45.314Z,21.70
2023-02-09T20:11:16.973Z,23.70
2023-02-09T20:13:45.500Z,25.50
2023-02-09T20:16:19.304Z,24.30
2023-02-09T20:18:48.920Z,21.40
2023-02-09T20:21:19.123Z,21.10
2023-02-09T20:23:47.592Z,22.20
2023-02-09T20:26:26.000Z,20.00
2023-02-09T20:28:54.046Z,21.90
2023-02-09T20:31:24.198Z,25.40
2023-02-09T20:33:52.222Z,28.80
2023-02-09T20:36:20.944Z,21.40
2023-02-09T20:38:48.631Z,22.20
2023-02-09T20:41:17.876Z,26.70
2023-02-09T20:44:04.888Z,23.30
2023-02-09T20:46:42.416Z,22.00
2023-02-09T20:49:12.539Z,22.90
2023-02-09T20:51:40.560Z,21.00
2023-02-09T20:54:08.262Z,23.10
2023-02-09T20:56:36.625Z,22.60
2023-02-09T20:59:05.728Z,21.40
2023-02-09T21:01:33.479Z,24.90
2023-02-09T21:04:01.106Z,24.50
2023-02-09T21:06:29.061Z,22.00
2023-02-09T21:08:56.764Z,21.20
2023-02-09T21:11:24.541Z,22.60
2023-02-09T21:13:52.563Z,23.50
2023-02-09T21:16:20.546Z,24.60
2023-02-09T21:18:48.310Z,21.50
2023-02-09T21:21:17.466Z,21.20
2023-02-09T21:23:46.519Z,20.70
2023-02-09T21:26:19.639Z,22.60
2023-02-09T21:28:48.623Z,24.30
2023-02-09T21:31:18.590Z,24.50
2023-02-09T21:33:46.343Z,22.30
2023-02-09T21:36:14.346Z,22.70
2023-02-09T21:38:42.297Z,28.70
2023-02-09T21:41:38.263Z,22.30
2023-02-09T21:44:06.925Z,22.80
2023-02-09T21:46:34.573Z,23.80
2023-02-09T21:49:02.572Z,25.50
2023-02-09T21:51:30.457Z,23.50
2023-02-09T21:53:58.128Z,22.70
2023-02-09T21:56:26.186Z,23.30
2023-02-09T21:58:54.154Z,24.20
2023-02-09T22:01:22.112Z,23.40
2023-02-09T22:03:57.056Z,23.90
2023-02-09T22:06:26.430Z,22.80
2023-02-09T22:08:54.089Z,22.50
2023-02-09T22:11:22.969Z,22.80
2023-02-09T22:13:50.612Z,22.30
2023-02-09T22:16:20.770Z,23.30
2023-02-09T22:18:48.568Z,22.60
2023-02-09T22:21:17.077Z,22.30
2023-02-09T22:23:44.996Z,23.50
2023-02-09T22:26:13.994Z,21.30
2023-02-09T22:28:42.303Z,22.80
2023-02-09T22:31:12.496Z,22.10
2023-02-09T22:33:40.181Z,21.30
2023-02-09T22:36:17.132Z,22.80
2023-02-09T22:38:45.239Z,21.40
2023-02-09T22:41:21.816Z,22.40
2023-02-09T22:43:58.268Z,23.00
2023-02-09T22:46:29.360Z,23.30
2023-02-09T22:48:59.245Z,22.90
2023-02-09T22:51:29.669Z,22.90
2023-02-09T22:53:58.396Z,23.40
2023-02-09T22:56:27.372Z,23.50
2023-02-09T22:58:56.730Z,23.50
2023-02-09T23:01:24.602Z,22.90
2023-02-09T23:03:52.835Z,23.10
2023-02-09T23:06:27.158Z,22.90
2023-02-09T23:08:56.760Z,22.20
2023-02-09T23:11:24.769Z,23.00
2023-02-09T23:14:07.074Z,21.90
2023-02-09T23:16:37.045Z,23.40
2023-02-09T23:19:06.644Z,22.60
2023-02-09T23:21:39.792Z,21.80
2023-02-09T23:24:08.619Z,22.30
2023-02-09T23:26:37.597Z,22.40
2023-02-09T23:29:08.149Z,22.10
2023-02-09T23:31:36.473Z,22.50
2023-02-09T23:34:04.397Z,22.60
2023-02-09T23:36:33.832Z,22.00
2023-02-09T23:39:04.519Z,22.50
2023-02-09T23:41:32.796Z,22.70
2023-02-09T23:44:01.547Z,21.80
2023-02-09T23:46:29.417Z,22.90
2023-02-09T23:48:57.876Z,21.70
2023-02-09T23:51:31.108Z,22.20
2023-02-09T23:54:01.356Z,22.30
2023-02-09T23:56:31.757Z,23.00
2023-02-09T23:58:59.436Z,22.30
